Gordon, West Virginia
Current Conditions -  °F | °C
As of 9:54 PM on Thursday 27 Nov 2014 (Local Time) from KCRW Reporting Station
Light Snow Light Snow  
Wind Chill: 23°   Ceiling: 1500
Heat Index: 30°   Visibility: 2mi
Dew Point: 27°   Wind: 7mph
Humidity: 88%   Direction: 250°WSW
Pressure: 30.33"   Gusts: NA
Location:  37.99°N, 81.7°W
Report Text: KCRW 280254Z 25006KT 2SM -SN BR SCT008 BKN015 OVC030 M01/M03 A3033 RMK AO2 SLP279 P0001 60001 T10111028 52009
Loading
Personal Weather Stations






























Interactive Weather Map New forecast layout! Learn more

10-Day Weather Forecast

Advertisements
Track Severe Weather on mobile